Startpagina
METAR-TAF:

METAR-TAF

Vliegvelden :

Funafuti, Tuvalu

breedte: 08-31S, lengte: 179-13E, hoogte: 1 m

Actueel weer

Dit bericht is 58 minuten geleden gemaakt, om 12:00 UTC
Wind 9 kt uit het oostzuidoosten
Temperatuur 30°C
Vochtigheid 79%
Druk 1010 hPa
Zicht 10 km of meer
Weinig wolken op 1500 ft, Cumulonimbus.
Verspreide wolken op 1600 ft, Stapelwolken.
lichte motregen

METAR: NGFU 211200Z 11009KT 9999 -DZ FEW015CB SCT016TCU 30/26 Q1010

Tijdstip: 00:58 (12:58 UTC)

Verwachting

Dit bericht is 1 uur en het 48 minuten geleden gemaakt, om 11:10 UTC
Verwachting geldig van 21 om 12 UTC tot 22 om 12 UTC
Wind 7 kt uit het oosten
Zicht 10 km of meer
Weinig wolken op 1700 ft

TAF: NGFU 211110Z 2112/2212 10007KT 9999 FEW017

Waarnemingen en weersverwachtingen van meer dan 4000 vliegvelden (METAR en TAF).

De beschikbare stations zijn de gele en rode punten op de kaart.

Ga met uw muis naar het station om de naam te zien.

Klik dan om waarnemingen en weersverwachtingen te zien.

kaart wijzigen: klik op de groene knoppen met een zwart kruis om in te zoomen, op de groene knop met een streepje om uit te zoomen of op de groene pijlen voor aangrenzende kaarten.


METAR-TAF: